Bridge City, Louisiana
Current Conditions -  °F | °C
As of 3:53 PM on Saturday 25 Oct 2014 (Local Time) from KMSY Reporting Station
Clear Clear  
Wind Chill: 78°   Ceiling: Unl
Heat Index: 79°   Visibility: 10mi
Dew Point: 54°   Wind: 6mph
Humidity: 43%   Direction: NA
Pressure: 30.08"   Gusts: NA
Location:  29.9137°N, 90.2078°W
Report Text: KMSY 252053Z VRB05KT 10SM CLR 26/12 A3008 RMK AO2 SLP188 T02560122 56019
Loading
Personal Weather Stations






























Interactive Weather Map
Tropical Storm Tracking
New forecast layout! Learn more

10-Day Weather Forecast

Advertisements
Track Severe Weather on mobile